createdAt,value
2022-09-20T00:10:44.378Z,21.9
2022-09-20T01:04:48.334Z,21.7
2022-09-20T01:28:10.902Z,21.6
2022-09-20T02:06:50.968Z,21.4
2022-09-20T02:45:44.251Z,21.2
2022-09-20T03:01:08.352Z,21.1
2022-09-20T03:40:08.321Z,20.9
2022-09-20T04:11:03.170Z,20.8
2022-09-20T04:26:33.891Z,20.7
2022-09-20T05:05:27.280Z,20.6
2022-09-20T05:20:44.839Z,20.5
2022-09-20T05:59:44.898Z,20.4
2022-09-20T06:15:09.034Z,20.3
2022-09-20T06:46:10.470Z,20.3
2022-09-20T07:09:33.153Z,20.3
2022-09-20T07:40:34.511Z,20.3
2022-09-20T08:03:44.023Z,20.2
2022-09-20T08:19:14.818Z,20.1
2022-09-20T09:05:40.633Z,19.8
2022-09-20T09:13:26.039Z,19.8
2022-09-20T09:44:40.905Z,19.6
2022-09-20T10:15:29.355Z,19.4
2022-09-20T10:31:06.802Z,19.4
2022-09-20T11:10:00.597Z,19.3
2022-09-20T11:41:02.137Z,19.5
2022-09-20T12:19:42.310Z,19.8
2022-09-20T12:43:04.843Z,20
2022-09-20T13:06:20.776Z,20.2
2022-09-20T13:29:36.678Z,20.4
2022-09-20T13:45:07.299Z,20.5
2022-09-20T14:16:01.888Z,20.7
2022-09-20T14:47:03.031Z,20.9
2022-09-20T15:18:10.629Z,21.3
2022-09-20T15:33:34.487Z,21.4
2022-09-20T15:49:11.517Z,21.6
2022-09-20T16:27:50.841Z,22.3
2022-09-20T16:58:45.001Z,22.6
2022-09-20T17:14:15.540Z,22.6
2022-09-20T17:53:02.055Z,22.3
2022-09-20T18:31:48.489Z,22.1
2022-09-20T18:55:04.392Z,22.1
2022-09-20T19:26:05.419Z,22.1
2022-09-20T19:49:34.431Z,22.2
2022-09-20T20:20:22.283Z,22.2
2022-09-20T20:36:05.999Z,22.2
2022-09-20T21:14:39.149Z,22.2
2022-09-20T21:45:40.296Z,22.1
2022-09-20T22:01:17.566Z,22.1
2022-09-20T22:32:11.989Z,22.1
2022-09-20T23:03:19.753Z,22
2022-09-20T23:42:06.237Z,22
